Time;durP1;ratioP1;P1;durP2;ratioP2;P2;SDS_P1;SDS_P2;PMS_P1;PMS_P2;Temp;Humidity;BMP_temperature;BMP_pressure;BME280_temperature;BME280_humidity;BME280_pressure;Samples;Min_cycle;Max_cycle;Signal;HPM_P1;HPM_P2
2022/03/16 00:01:16;;;;;;;;;;;6.90;99.90;;;;;;4995018;28;19913;-74
2022/03/16 00:03:41;;;;;;;;;;;6.90;99.90;;;;;;5010669;28;19961;-72
2022/03/16 00:06:07;;;;;;;;;;;6.90;99.90;;;;;;4994576;28;19910;-73
2022/03/16 00:08:32;;;;;;;;;;;6.90;99.90;;;;;;4994905;28;19913;-74
2022/03/16 00:10:58;;;;;;;;;;;6.90;99.90;;;;;;5012397;28;19956;-74
2022/03/16 00:13:24;;;;;;;;;;;6.80;99.90;;;;;;5012653;28;19956;-74
2022/03/16 00:15:50;;;;;;;;;;;6.90;99.90;;;;;;4994352;28;20003;-74
2022/03/16 00:18:15;;;;;;;;;;;6.80;99.90;;;;;;5012458;28;20007;-73
2022/03/16 00:20:41;;;;;;;;;;;6.80;99.90;;;;;;4994132;28;19914;-73
2022/03/16 00:23:06;;;;;;;;;;;6.70;99.90;;;;;;4994568;28;19913;-72
2022/03/16 00:25:32;;;;;;;;;;;6.70;99.90;;;;;;5012326;28;20290;-74
2022/03/16 00:27:57;;;;;;;;;;;6.70;99.90;;;;;;4994193;28;20114;-73
2022/03/16 00:30:23;;;;;;;;;;;6.70;99.90;;;;;;4994452;28;19910;-74
2022/03/16 00:32:48;;;;;;;;;;;6.70;99.90;;;;;;4994005;28;19963;-74
2022/03/16 00:35:14;;;;;;;;;;;6.70;99.90;;;;;;4994925;28;19916;-74
2022/03/16 00:37:39;;;;;;;;;;;6.70;99.90;;;;;;5011723;28;19914;-73
2022/03/16 00:40:05;;;;;;;;;;;6.70;99.90;;;;;;5012375;28;19914;-74
2022/03/16 00:42:31;;;;;;;;;;;6.60;99.90;;;;;;4994138;28;20264;-73
2022/03/16 00:44:56;;;;;;;;;;;6.60;99.90;;;;;;5011491;28;19916;-72
2022/03/16 00:47:22;;;;;;;;;;;6.50;99.90;;;;;;5012133;28;19910;-73
2022/03/16 00:49:47;;;;;;;;;;;6.50;99.90;;;;;;4993753;28;19909;-71
2022/03/16 00:52:13;;;;;;;;;;;6.50;99.90;;;;;;4994261;28;19913;-73
2022/03/16 00:54:38;;;;;;;;;;;6.40;99.90;;;;;;5012092;28;19920;-74
2022/03/16 00:57:04;;;;;;;;;;;6.50;99.90;;;;;;4993615;28;20386;-73
2022/03/16 00:59:29;;;;;;;;;;;6.40;99.90;;;;;;5012144;28;20012;-73
2022/03/16 01:01:55;;;;;;;;;;;6.50;99.90;;;;;;4993785;28;20028;-72
2022/03/16 01:04:21;;;;;;;;;;;6.60;99.90;;;;;;4994424;28;19910;-73
2022/03/16 01:06:46;;;;;;;;;;;6.60;99.90;;;;;;5011242;28;20239;-73
2022/03/16 01:09:12;;;;;;;;;;;6.70;99.90;;;;;;5011810;28;20263;-73
2022/03/16 01:11:37;;;;;;;;;;;6.60;99.90;;;;;;4994091;28;19909;-73
2022/03/16 01:14:03;;;;;;;;;;;6.60;99.90;;;;;;5010857;28;19921;-73
2022/03/16 01:16:28;;;;;;;;;;;6.60;99.90;;;;;;4994161;28;19940;-73
2022/03/16 01:18:54;;;;;;;;;;;6.60;99.90;;;;;;5011211;28;19914;-73
2022/03/16 01:21:19;;;;;;;;;;;6.50;99.90;;;;;;4993982;28;19968;-74
2022/03/16 01:23:45;;;;;;;;;;;6.40;99.90;;;;;;4993085;28;20302;-72
2022/03/16 01:26:10;;;;;;;;;;;6.30;99.90;;;;;;5011425;28;20306;-74
2022/03/16 01:28:36;;;;;;;;;;;6.20;99.90;;;;;;4993953;28;19910;-74
2022/03/16 01:31:01;;;;;;;;;;;6.20;99.90;;;;;;5011323;28;20127;-74
2022/03/16 01:33:28;;;;;;;;;;;6.20;99.90;;;;;;4993980;28;19960;-74
2022/03/16 01:35:53;;;;;;;;;;;6.10;99.90;;;;;;4993392;28;19944;-73
2022/03/16 01:38:19;;;;;;;;;;;5.90;99.90;;;;;;4993878;28;20393;-74
2022/03/16 01:40:45;;;;;;;;;;;5.60;99.90;;;;;;4993272;28;19920;-74
2022/03/16 01:43:11;;;;;;;;;;;5.80;99.90;;;;;;4996098;28;19955;-74
2022/03/16 01:45:36;;;;;;;;;;;5.40;99.90;;;;;;5015134;28;19971;-75
2022/03/16 01:48:02;;;;;;;;;;;5.40;99.90;;;;;;4997094;28;20408;-74
2022/03/16 01:50:27;;;;;;;;;;;5.10;99.90;;;;;;4997745;28;19925;-74
2022/03/16 01:52:53;;;;;;;;;;;5.10;99.90;;;;;;4996642;28;20335;-72
2022/03/16 01:55:19;;;;;;;;;;;5.20;99.90;;;;;;4997505;28;19918;-74
2022/03/16 01:57:46;;;;;;;;;;;5.00;99.90;;;;;;4996896;28;19921;-71
2022/03/16 02:00:12;;;;;;;;;;;5.20;99.90;;;;;;4997644;28;19914;-74
2022/03/16 02:02:38;;;;;;;;;;;5.20;99.90;;;;;;5015268;28;20270;-74
2022/03/16 02:05:03;;;;;;;;;;;5.30;99.90;;;;;;5014472;28;20194;-73
2022/03/16 02:07:29;;;;;;;;;;;5.30;99.90;;;;;;4997281;28;19914;-73
2022/03/16 02:09:57;;;;;;;;;;;5.40;99.90;;;;;;5014302;28;20219;-75
2022/03/16 02:12:22;;;;;;;;;;;5.60;99.90;;;;;;5014992;28;19963;-74
2022/03/16 02:14:48;;;;;;;;;;;5.50;99.90;;;;;;5014008;28;20310;-73
2022/03/16 02:17:13;;;;;;;;;;;5.20;99.90;;;;;;5014877;28;20032;-72
2022/03/16 02:19:39;;;;;;;;;;;5.30;99.90;;;;;;4997247;28;19921;-74
2022/03/16 02:22:05;;;;;;;;;;;5.50;99.90;;;;;;5014037;28;20458;-74
2022/03/16 02:24:30;;;;;;;;;;;5.50;99.90;;;;;;4997005;28;19922;-75
2022/03/16 02:26:56;;;;;;;;;;;5.40;99.90;;;;;;4996531;28;19948;-74
2022/03/16 02:29:22;;;;;;;;;;;5.40;99.90;;;;;;4997015;28;19909;-72
2022/03/16 02:31:48;;;;;;;;;;;5.20;99.90;;;;;;5013806;28;20350;-71
2022/03/16 02:34:13;;;;;;;;;;;5.20;99.90;;;;;;5014247;28;20405;-74
2022/03/16 02:36:39;;;;;;;;;;;5.20;99.90;;;;;;5014541;28;19913;-74
2022/03/16 02:39:04;;;;;;;;;;;5.20;99.90;;;;;;4996038;28;19936;-74
2022/03/16 02:41:30;;;;;;;;;;;5.30;99.90;;;;;;5014444;28;19915;-75
2022/03/16 02:43:55;;;;;;;;;;;5.40;99.90;;;;;;5013855;28;20004;-74
2022/03/16 02:46:22;;;;;;;;;;;5.50;99.90;;;;;;4996826;28;19909;-74
2022/03/16 02:48:47;;;;;;;;;;;5.20;99.90;;;;;;5013712;28;19963;-71
2022/03/16 02:51:13;;;;;;;;;;;5.10;99.90;;;;;;5014256;28;19917;-74
2022/03/16 02:53:39;;;;;;;;;;;5.00;99.90;;;;;;4995818;28;19923;-73
2022/03/16 02:56:05;;;;;;;;;;;5.30;99.90;;;;;;4995766;28;20012;-73
2022/03/16 02:58:30;;;;;;;;;;;5.30;99.90;;;;;;4996118;28;19913;-73
2022/03/16 03:00:56;;;;;;;;;;;5.20;99.90;;;;;;5013219;28;20251;-74
2022/03/16 03:03:22;;;;;;;;;;;5.20;99.90;;;;;;5014254;28;20000;-74
2022/03/16 03:05:48;;;;;;;;;;;5.00;99.90;;;;;;4995773;28;19910;-69
2022/03/16 03:08:13;;;;;;;;;;;4.80;99.90;;;;;;4996152;28;19925;-74
2022/03/16 03:10:39;;;;;;;;;;;4.70;99.90;;;;;;4996253;28;19921;-73
2022/03/16 03:13:05;;;;;;;;;;;4.70;99.90;;;;;;5013208;28;20374;-74
2022/03/16 03:15:30;;;;;;;;;;;4.70;99.90;;;;;;4999297;28;20378;-75
2022/03/16 03:17:57;;;;;;;;;;;4.90;99.90;;;;;;5013703;28;19913;-75
2022/03/16 03:20:22;;;;;;;;;;;5.10;99.90;;;;;;4996655;28;19929;-74
2022/03/16 03:22:49;;;;;;;;;;;5.20;99.90;;;;;;4996971;28;19910;-74
2022/03/16 03:25:15;;;;;;;;;;;5.20;99.90;;;;;;4993370;28;19944;-74
2022/03/16 03:27:42;;;;;;;;;;;5.30;99.90;;;;;;4993740;28;20121;-74
2022/03/16 03:30:08;;;;;;;;;;;5.20;99.90;;;;;;4994141;28;19910;-75
2022/03/16 03:32:34;;;;;;;;;;;5.20;99.90;;;;;;4995012;28;19989;-75
2022/03/16 03:35:00;;;;;;;;;;;5.30;99.90;;;;;;4994033;28;20323;-75
2022/03/16 03:37:30;;;;;;;;;;;5.30;99.90;;;;;;4993512;28;19945;-74
2022/03/16 03:39:57;;;;;;;;;;;5.40;99.90;;;;;;4993043;28;19945;-75
2022/03/16 03:42:23;;;;;;;;;;;5.30;99.90;;;;;;4994493;28;20466;-76
2022/03/16 03:44:50;;;;;;;;;;;5.30;99.90;;;;;;4984291;28;19918;-74
2022/03/16 03:47:16;;;;;;;;;;;5.30;99.90;;;;;;4972982;28;20248;-74
2022/03/16 03:49:42;;;;;;;;;;;5.40;99.90;;;;;;4973863;28;19914;-73
2022/03/16 03:52:09;;;;;;;;;;;5.40;99.90;;;;;;4971645;28;19993;-74
2022/03/16 03:54:35;;;;;;;;;;;5.40;99.90;;;;;;4973288;28;19914;-75
2022/03/16 03:57:01;;;;;;;;;;;5.50;99.90;;;;;;4973593;28;19914;-73
2022/03/16 03:59:27;;;;;;;;;;;5.40;99.90;;;;;;4974486;28;20038;-74
2022/03/16 04:01:52;;;;;;;;;;;5.40;99.90;;;;;;4973959;28;19953;-74
2022/03/16 04:04:18;;;;;;;;;;;5.40;99.90;;;;;;4973508;28;19918;-73
2022/03/16 04:06:44;;;;;;;;;;;5.50;99.90;;;;;;4971808;28;19917;-73
2022/03/16 04:09:09;;;;;;;;;;;5.50;99.90;;;;;;4971581;28;20437;-75
2022/03/16 04:11:35;;;;;;;;;;;5.40;99.90;;;;;;4973642;28;19910;-74
2022/03/16 04:14:00;;;;;;;;;;;5.50;99.90;;;;;;4973281;28;20009;-74
2022/03/16 04:16:26;;;;;;;;;;;5.50;99.90;;;;;;4973320;28;20351;-74
2022/03/16 04:18:52;;;;;;;;;;;5.50;99.90;;;;;;4972177;28;19914;-72
2022/03/16 04:21:17;;;;;;;;;;;5.50;99.90;;;;;;4973242;28;20375;-73
2022/03/16 04:23:43;;;;;;;;;;;5.50;99.90;;;;;;4976797;28;20375;-75
2022/03/16 04:26:08;;;;;;;;;;;5.50;99.90;;;;;;4974861;28;20109;-74
2022/03/16 04:28:34;;;;;;;;;;;5.50;99.90;;;;;;4975427;28;19910;-74
2022/03/16 04:31:02;;;;;;;;;;;5.50;99.90;;;;;;4974778;28;19923;-75
2022/03/16 04:33:28;;;;;;;;;;;5.50;99.90;;;;;;4992645;28;20342;-73
2022/03/16 04:35:54;;;;;;;;;;;5.60;99.90;;;;;;4992057;28;19910;-73
2022/03/16 04:38:19;;;;;;;;;;;5.50;99.90;;;;;;4975024;28;19918;-74
2022/03/16 04:40:45;;;;;;;;;;;5.60;99.90;;;;;;4992670;28;20247;-75
2022/03/16 04:43:11;;;;;;;;;;;5.60;99.90;;;;;;4992066;28;19920;-75
2022/03/16 04:45:38;;;;;;;;;;;5.60;99.90;;;;;;4975188;28;19909;-75
2022/03/16 04:48:08;;;;;;;;;;;5.60;99.90;;;;;;4974604;28;19917;-74
2022/03/16 04:50:34;;;;;;;;;;;5.50;99.90;;;;;;4974951;28;20302;-74
2022/03/16 04:53:00;;;;;;;;;;;5.50;99.90;;;;;;4991760;28;19917;-73
2022/03/16 04:55:25;;;;;;;;;;;5.60;99.90;;;;;;4975074;28;19914;-76
2022/03/16 04:57:51;;;;;;;;;;;5.50;99.90;;;;;;4991980;28;19937;-74
2022/03/16 05:00:16;;;;;;;;;;;5.60;99.90;;;;;;4991921;28;19920;-74
2022/03/16 05:02:42;;;;;;;;;;;5.60;99.90;;;;;;4992919;28;19978;-73
2022/03/16 05:05:09;;;;;;;;;;;5.60;99.90;;;;;;4974150;28;19937;-74
2022/03/16 05:07:35;;;;;;;;;;;5.60;99.90;;;;;;4974569;28;19910;-73
2022/03/16 05:10:00;;;;;;;;;;;5.50;99.90;;;;;;4974028;28;19910;-73
2022/03/16 05:12:26;;;;;;;;;;;5.40;99.90;;;;;;4991966;28;19910;-74
2022/03/16 05:14:51;;;;;;;;;;;5.50;99.90;;;;;;4974693;28;20001;-73
2022/03/16 05:17:17;;;;;;;;;;;5.50;99.90;;;;;;4974066;28;19909;-72
2022/03/16 05:19:42;;;;;;;;;;;5.60;99.90;;;;;;4991980;28;19914;-73
2022/03/16 05:22:08;;;;;;;;;;;5.50;99.90;;;;;;4991722;28;19910;-74
2022/03/16 05:24:34;;;;;;;;;;;5.50;99.90;;;;;;4992233;28;19979;-74
2022/03/16 05:27:00;;;;;;;;;;;5.40;99.90;;;;;;4973675;28;20434;-71
2022/03/16 05:29:25;;;;;;;;;;;5.50;99.90;;;;;;4974818;28;19914;-73
2022/03/16 05:31:51;;;;;;;;;;;5.50;99.90;;;;;;4992065;28;20315;-73
2022/03/16 05:34:16;;;;;;;;;;;5.50;99.90;;;;;;4991828;28;19957;-74
2022/03/16 05:36:42;;;;;;;;;;;5.40;99.90;;;;;;4991837;28;19917;-73
2022/03/16 05:39:07;;;;;;;;;;;5.40;99.90;;;;;;4991213;28;19914;-75
2022/03/16 05:41:33;;;;;;;;;;;5.40;99.90;;;;;;4974423;28;20016;-74
2022/03/16 05:43:58;;;;;;;;;;;5.30;99.90;;;;;;4973959;28;20267;-74
2022/03/16 05:46:24;;;;;;;;;;;5.40;99.90;;;;;;4974377;28;20355;-74
2022/03/16 05:48:49;;;;;;;;;;;5.40;99.90;;;;;;4974364;28;20347;-74
2022/03/16 05:51:15;;;;;;;;;;;5.40;99.90;;;;;;4991628;28;19917;-74
2022/03/16 05:53:40;;;;;;;;;;;5.50;99.90;;;;;;4991741;28;19914;-74
2022/03/16 05:56:06;;;;;;;;;;;5.40;99.90;;;;;;4973558;28;20279;-75
2022/03/16 05:58:32;;;;;;;;;;;5.40;99.90;;;;;;4973804;28;19914;-74
2022/03/16 06:01:00;;;;;;;;;;;5.40;99.90;;;;;;4973841;28;19960;-74
2022/03/16 06:03:26;;;;;;;;;;;5.40;99.90;;;;;;4974006;28;20009;-75
2022/03/16 06:05:52;;;;;;;;;;;5.50;99.90;;;;;;4973645;28;20232;-76
2022/03/16 06:08:18;;;;;;;;;;;5.60;99.90;;;;;;4973037;28;20099;-75
2022/03/16 06:10:44;;;;;;;;;;;5.50;99.90;;;;;;4973696;28;19910;-75
2022/03/16 06:13:09;;;;;;;;;;;5.50;99.90;;;;;;4990725;28;19920;-74
2022/03/16 06:15:42;;;;;;;;;;;5.50;99.90;;;;;;4974020;28;19936;-75
2022/03/16 06:18:08;;;;;;;;;;;5.50;99.90;;;;;;4990841;28;20339;-75
2022/03/16 06:20:34;;;;;;;;;;;5.50;99.90;;;;;;4974017;28;19921;-75
2022/03/16 06:22:59;;;;;;;;;;;5.50;99.90;;;;;;4990831;28;19917;-72
2022/03/16 06:25:25;;;;;;;;;;;5.50;99.90;;;;;;4991496;28;19932;-74
2022/03/16 06:27:51;;;;;;;;;;;5.50;99.90;;;;;;4991312;28;20267;-74
2022/03/16 06:30:17;;;;;;;;;;;5.50;99.90;;;;;;4994222;28;20099;-75
2022/03/16 06:32:43;;;;;;;;;;;5.60;99.90;;;;;;4995277;28;19910;-74
2022/03/16 06:35:09;;;;;;;;;;;5.50;99.90;;;;;;4976684;28;19910;-75
2022/03/16 06:37:34;;;;;;;;;;;5.50;99.90;;;;;;4976718;28;20005;-74
2022/03/16 06:40:00;;;;;;;;;;;5.50;99.90;;;;;;4976584;28;19914;-70
2022/03/16 06:42:25;;;;;;;;;;;5.60;99.90;;;;;;4994303;28;20379;-75
2022/03/16 06:44:51;;;;;;;;;;;5.60;99.90;;;;;;4976817;28;19910;-74
2022/03/16 06:47:17;;;;;;;;;;;5.60;99.90;;;;;;4976083;28;19909;-75
2022/03/16 06:49:44;;;;;;;;;;;5.60;99.90;;;;;;4977322;28;20271;-74
2022/03/16 06:52:09;;;;;;;;;;;5.50;99.90;;;;;;4975393;28;19913;-76
2022/03/16 06:54:35;;;;;;;;;;;5.50;99.90;;;;;;4976570;28;19914;-76
2022/03/16 06:57:00;;;;;;;;;;;5.50;99.90;;;;;;4977129;28;19921;-75
2022/03/16 06:59:26;;;;;;;;;;;5.60;99.90;;;;;;4994312;28;19913;-75
2022/03/16 07:01:51;;;;;;;;;;;5.70;99.90;;;;;;4978645;28;19956;-75
2022/03/16 07:04:17;;;;;;;;;;;5.70;99.90;;;;;;4994580;28;19960;-76
2022/03/16 07:06:42;;;;;;;;;;;5.80;99.90;;;;;;4995908;28;19956;-77
2022/03/16 07:09:08;;;;;;;;;;;5.80;99.90;;;;;;5012623;28;19910;-61
2022/03/16 07:11:33;;;;;;;;;;;6.50;99.90;;;;;;4995152;28;19945;-72
2022/03/16 07:16:43;;;;;;;;;;;6.50;99.90;;;;;;5012816;28;20338;-74
2022/03/16 07:19:08;;;;;;;;;;;6.30;99.90;;;;;;4986970;28;19917;-71
2022/03/16 07:21:34;;;;;;;;;;;6.10;99.90;;;;;;4981354;28;20283;-73
2022/03/16 07:24:00;;;;;;;;;;;6.00;99.90;;;;;;5005325;28;20016;-72
2022/03/16 07:26:26;;;;;;;;;;;6.10;99.90;;;;;;5010968;28;19968;-70
2022/03/16 07:28:51;;;;;;;;;;;5.90;99.90;;;;;;4998987;28;20346;-69
2022/03/16 07:31:17;;;;;;;;;;;6.10;99.90;;;;;;5001626;28;19919;-69
2022/03/16 07:33:42;;;;;;;;;;;6.10;99.90;;;;;;4992908;28;19936;-69
2022/03/16 07:36:08;;;;;;;;;;;6.10;99.90;;;;;;4969582;28;19914;-72
2022/03/16 07:38:34;;;;;;;;;;;6.10;99.90;;;;;;4988142;28;19984;-71
2022/03/16 07:40:59;;;;;;;;;;;6.20;99.90;;;;;;4969094;28;19933;-72
2022/03/16 07:43:25;;;;;;;;;;;6.20;99.90;;;;;;4970263;28;19960;-71
2022/03/16 07:45:50;;;;;;;;;;;6.20;99.90;;;;;;4988314;28;19914;-71
2022/03/16 07:48:16;;;;;;;;;;;6.20;99.90;;;;;;4981139;28;19940;-69
2022/03/16 07:50:41;;;;;;;;;;;6.30;99.90;;;;;;4991014;28;19944;-69
2022/03/16 07:53:07;;;;;;;;;;;6.40;99.90;;;;;;4979742;28;19918;-69
2022/03/16 07:55:32;;;;;;;;;;;6.60;99.90;;;;;;4987682;28;20090;-69
2022/03/16 07:57:58;;;;;;;;;;;6.50;99.90;;;;;;5005780;28;19928;-70
2022/03/16 08:00:24;;;;;;;;;;;6.50;99.90;;;;;;5005228;28;20575;-70
2022/03/16 08:02:52;;;;;;;;;;;6.50;99.90;;;;;;4977218;28;19918;-70
2022/03/16 08:05:21;;;;;;;;;;;6.60;99.90;;;;;;4985369;28;19921;-71
2022/03/16 08:07:47;;;;;;;;;;;6.60;99.90;;;;;;5003048;28;19921;-70
2022/03/16 08:10:12;;;;;;;;;;;6.70;99.90;;;;;;4983040;28;19914;-69
2022/03/16 08:12:38;;;;;;;;;;;6.70;99.90;;;;;;4980054;28;19917;-69
2022/03/16 08:15:05;;;;;;;;;;;6.80;99.90;;;;;;4989344;28;20008;-70
2022/03/16 08:17:30;;;;;;;;;;;6.60;99.90;;;;;;4977936;28;19913;-69
2022/03/16 08:19:57;;;;;;;;;;;6.70;99.90;;;;;;4988938;28;19968;-69
2022/03/16 08:22:26;;;;;;;;;;;6.90;99.90;;;;;;4991721;28;20347;-69
2022/03/16 08:24:53;;;;;;;;;;;6.80;99.90;;;;;;4994236;28;19969;-71
2022/03/16 08:27:18;;;;;;;;;;;6.70;99.90;;;;;;4993587;28;19924;-73
2022/03/16 08:29:44;;;;;;;;;;;6.80;99.90;;;;;;5011814;28;20321;-72
2022/03/16 08:32:09;;;;;;;;;;;6.60;99.90;;;;;;5011174;28;20619;-71
2022/03/16 08:34:35;;;;;;;;;;;6.60;99.90;;;;;;5009290;28;20275;-70
2022/03/16 08:37:01;;;;;;;;;;;6.70;99.90;;;;;;4985657;28;20303;-72
2022/03/16 08:39:26;;;;;;;;;;;6.70;99.90;;;;;;4982746;28;20366;-72
2022/03/16 08:41:52;;;;;;;;;;;6.70;99.90;;;;;;4984430;28;20312;-73
2022/03/16 08:44:18;;;;;;;;;;;6.70;99.90;;;;;;4986705;28;20319;-71
2022/03/16 08:46:44;;;;;;;;;;;6.70;99.90;;;;;;4993858;28;19983;-72
2022/03/16 08:49:09;;;;;;;;;;;6.80;99.90;;;;;;4989576;28;20011;-74
2022/03/16 08:51:35;;;;;;;;;;;6.90;99.90;;;;;;4996974;28;19913;-76
2022/03/16 08:54:00;;;;;;;;;;;6.80;99.90;;;;;;4984220;28;20346;-73
2022/03/16 08:56:26;;;;;;;;;;;7.00;99.90;;;;;;4993691;28;20016;-72
2022/03/16 08:58:51;;;;;;;;;;;7.20;99.90;;;;;;4994268;28;19913;-73
2022/03/16 09:01:17;;;;;;;;;;;7.30;99.90;;;;;;5011016;28;19922;-72
2022/03/16 09:03:42;;;;;;;;;;;7.40;99.90;;;;;;5009678;28;20303;-69
2022/03/16 09:06:08;;;;;;;;;;;7.50;99.90;;;;;;5008848;28;19964;-73
2022/03/16 09:08:34;;;;;;;;;;;7.50;99.90;;;;;;4994310;28;19910;-72
2022/03/16 09:11:01;;;;;;;;;;;7.40;99.90;;;;;;4993900;28;20318;-71
2022/03/16 09:13:26;;;;;;;;;;;7.50;99.90;;;;;;5011172;28;19913;-70
2022/03/16 09:15:52;;;;;;;;;;;7.50;99.90;;;;;;4994222;28;19971;-64
2022/03/16 09:18:20;;;;;;;;;;;8.00;99.90;;;;;;4993233;28;19918;-66
2022/03/16 09:20:46;;;;;;;;;;;8.70;99.90;;;;;;4993864;28;20346;-66
2022/03/16 09:23:12;;;;;;;;;;;9.60;99.90;;;;;;5008591;28;20008;-70
2022/03/16 09:25:41;;;;;;;;;;;9.80;99.90;;;;;;4997781;28;19988;-72
2022/03/16 09:28:08;;;;;;;;;;;9.80;99.90;;;;;;4993491;28;19909;-71
2022/03/16 09:30:34;;;;;;;;;;;9.50;99.90;;;;;;4991620;28;19922;-72
2022/03/16 09:33:00;;;;;;;;;;;9.50;99.90;;;;;;4992781;28;20040;-71
2022/03/16 09:35:27;;;;;;;;;;;9.30;99.90;;;;;;4983942;28;19913;-72
2022/03/16 09:37:54;;;;;;;;;;;9.20;99.90;;;;;;4973919;28;20024;-72
2022/03/16 09:40:19;;;;;;;;;;;9.30;99.90;;;;;;4974488;28;19918;-72
2022/03/16 09:42:45;;;;;;;;;;;9.40;99.90;;;;;;5010975;28;19917;-73
2022/03/16 09:45:16;;;;;;;;;;;9.30;99.90;;;;;;4993131;28;19910;-73
2022/03/16 09:47:42;;;;;;;;;;;9.20;99.90;;;;;;5006523;28;20009;-74
2022/03/16 09:50:09;;;;;;;;;;;9.40;99.90;;;;;;4999178;28;19918;-73
2022/03/16 09:52:34;;;;;;;;;;;9.90;99.90;;;;;;4988797;28;19914;-73
2022/03/16 09:55:01;;;;;;;;;;;10.20;99.90;;;;;;4989813;28;19924;-74
2022/03/16 09:57:27;;;;;;;;;;;10.80;99.90;;;;;;4973558;28;20009;-73
2022/03/16 09:59:52;;;;;;;;;;;11.20;99.90;;;;;;4991954;28;20363;-72
2022/03/16 10:02:21;;;;;;;;;;;11.00;99.90;;;;;;4989414;28;19909;-72
2022/03/16 10:04:46;;;;;;;;;;;11.50;99.90;;;;;;4994656;28;19909;-73
2022/03/16 10:07:12;;;;;;;;;;;12.00;99.90;;;;;;4993263;28;19910;-74
2022/03/16 10:15:12;;;;;;;;;;;14.00;99.90;;;;;;4995401;28;19960;-72
2022/03/16 10:17:44;;;;;;;;;;;14.60;99.90;;;;;;4995226;28;19944;-72
2022/03/16 10:20:11;;;;;;;;;;;15.20;99.90;;;;;;4994036;28;20016;-73
2022/03/16 10:22:38;;;;;;;;;;;15.40;99.90;;;;;;4994375;28;20266;-73
2022/03/16 10:25:08;;;;;;;;;;;15.80;99.80;;;;;;4989784;28;19922;-72
2022/03/16 10:27:36;;;;;;;;;;;15.90;98.10;;;;;;4974328;28;20024;-73
2022/03/16 10:30:02;;;;;;;;;;;16.20;98.70;;;;;;4990311;28;19957;-71
2022/03/16 10:32:31;;;;;;;;;;;16.00;97.10;;;;;;4988806;28;20286;-71
2022/03/16 10:34:57;;;;;;;;;;;16.00;97.90;;;;;;4975336;28;19914;-74
2022/03/16 10:37:23;;;;;;;;;;;15.60;97.60;;;;;;4989534;28;19934;-73
2022/03/16 10:39:50;;;;;;;;;;;15.20;98.60;;;;;;4975642;28;19914;-73
2022/03/16 10:48:01;;;;;;;;;;;16.20;97.30;;;;;;4974854;28;19922;-76
2022/03/16 10:50:26;;;;;;;;;;;16.40;99.90;;;;;;4972803;28;19910;-75
2022/03/16 10:52:52;;;;;;;;;;;17.90;99.90;;;;;;4989766;28;19910;-75
2022/03/16 10:55:22;;;;;;;;;;;18.30;99.90;;;;;;4988880;28;20013;-75
2022/03/16 10:57:48;;;;;;;;;;;18.50;96.20;;;;;;4989872;28;20364;-75
2022/03/16 11:00:15;;;;;;;;;;;19.00;97.20;;;;;;4974802;28;19930;-73
2022/03/16 11:02:43;;;;;;;;;;;19.10;93.30;;;;;;4975529;28;19914;-74
2022/03/16 11:05:09;;;;;;;;;;;17.50;96.40;;;;;;4989361;28;20375;-72
2022/03/16 11:07:36;;;;;;;;;;;17.70;96.10;;;;;;4989136;28;20128;-75
2022/03/16 11:10:04;;;;;;;;;;;18.30;93.40;;;;;;4989609;28;19910;-72
2022/03/16 11:15:14;;;;;;;;;;;18.70;92.70;;;;;;4988013;28;20309;-76
2022/03/16 11:17:40;;;;;;;;;;;18.80;92.10;;;;;;4985380;28;19918;-73
2022/03/16 11:20:08;;;;;;;;;;;19.10;92.10;;;;;;4987322;28;20441;-73
2022/03/16 11:25:39;;;;;;;;;;;19.30;91.30;;;;;;5007478;28;19935;-74
2022/03/16 11:28:07;;;;;;;;;;;19.00;90.90;;;;;;5008230;28;20297;-74
2022/03/16 11:30:36;;;;;;;;;;;18.20;91.50;;;;;;4989629;28;19920;-74
2022/03/16 11:33:12;;;;;;;;;;;18.50;92.00;;;;;;4990496;28;20251;-73
2022/03/16 11:35:50;;;;;;;;;;;18.20;91.90;;;;;;4990300;28;19984;-73
2022/03/16 11:38:16;;;;;;;;;;;17.50;92.60;;;;;;4991082;28;19918;-73
2022/03/16 11:40:47;;;;;;;;;;;17.80;93.10;;;;;;5007123;28;19924;-73
2022/03/16 11:43:15;;;;;;;;;;;18.50;92.30;;;;;;4988683;28;19913;-74
2022/03/16 11:45:41;;;;;;;;;;;19.30;91.60;;;;;;4985595;28;19922;-75
2022/03/16 11:48:36;;;;;;;;;;;18.80;91.20;;;;;;4988105;28;19948;-73
2022/03/16 11:51:13;;;;;;;;;;;19.10;90.70;;;;;;4988283;28;19965;-73
2022/03/16 11:54:01;;;;;;;;;;;19.70;90.60;;;;;;4987764;28;20359;-73
2022/03/16 11:56:42;;;;;;;;;;;20.30;89.20;;;;;;4972780;28;20307;-76
2022/03/16 11:59:09;;;;;;;;;;;19.40;88.40;;;;;;4986461;28;19924;-72
2022/03/16 12:01:37;;;;;;;;;;;19.70;87.20;;;;;;4986989;28;20060;-76
2022/03/16 12:04:11;;;;;;;;;;;19.40;90.00;;;;;;4986646;28;19968;-73
2022/03/16 12:07:05;;;;;;;;;;;19.90;87.80;;;;;;4985715;28;19914;-72
2022/03/16 12:09:31;;;;;;;;;;;20.10;87.80;;;;;;4987057;28;19914;-72
2022/03/16 12:15:01;;;;;;;;;;;19.50;86.40;;;;;;5005034;28;19925;-72
2022/03/16 12:17:27;;;;;;;;;;;19.80;88.00;;;;;;4992013;28;19909;-73
2022/03/16 12:20:06;;;;;;;;;;;20.60;87.40;;;;;;4974822;28;19914;-72
2022/03/16 12:22:37;;;;;;;;;;;21.30;83.60;;;;;;4991592;28;20013;-77
2022/03/16 12:25:42;;;;;;;;;;;21.60;81.40;;;;;;4990481;28;19921;-72
2022/03/16 12:30:55;;;;;;;;;;;18.70;83.40;;;;;;4934862;29;19962;-71
2022/03/16 12:33:24;;;;;;;;;;;16.70;90.80;;;;;;4931418;29;19961;-72
2022/03/16 12:35:51;;;;;;;;;;;16.00;92.60;;;;;;4914989;29;20357;-73
2022/03/16 12:38:17;;;;;;;;;;;15.90;93.40;;;;;;4915033;29;19918;-71
2022/03/16 12:43:30;;;;;;;;;;;16.00;91.90;;;;;;4931467;29;20271;-72
2022/03/16 12:46:16;;;;;;;;;;;15.30;91.50;;;;;;4912386;29;20400;-74
2022/03/16 12:48:47;;;;;;;;;;;15.40;92.10;;;;;;4914365;29;19958;-73
2022/03/16 12:51:18;;;;;;;;;;;15.60;91.90;;;;;;4916400;29;19943;-74
2022/03/16 12:53:46;;;;;;;;;;;16.30;90.90;;;;;;4914730;29;19915;-72
2022/03/16 12:56:15;;;;;;;;;;;16.20;90.80;;;;;;4931759;29;20006;-72
2022/03/16 12:58:42;;;;;;;;;;;15.40;91.90;;;;;;4965561;28;20218;-72
2022/03/16 13:01:17;;;;;;;;;;;15.70;92.10;;;;;;5011677;28;20451;-73
2022/03/16 13:03:43;;;;;;;;;;;15.80;91.80;;;;;;5011181;28;19936;-72
2022/03/16 13:06:13;;;;;;;;;;;16.60;90.50;;;;;;5011296;28;19909;-71
2022/03/16 13:08:42;;;;;;;;;;;16.60;92.20;;;;;;5010645;28;20397;-73
2022/03/16 13:11:17;;;;;;;;;;;17.00;92.20;;;;;;5011629;28;19996;-75
2022/03/16 13:13:46;;;;;;;;;;;17.20;92.50;;;;;;4993166;28;20322;-74
2022/03/16 13:16:28;;;;;;;;;;;17.50;91.40;;;;;;4993225;28;19944;-72
2022/03/16 13:18:54;;;;;;;;;;;17.10;91.00;;;;;;5011315;28;19952;-72
2022/03/16 13:21:24;;;;;;;;;;;16.80;91.20;;;;;;4993377;28;19999;-72
2022/03/16 13:23:59;;;;;;;;;;;17.30;91.30;;;;;;4993240;28;19929;-74
2022/03/16 13:26:25;;;;;;;;;;;17.20;93.80;;;;;;5005564;28;19924;-74
2022/03/16 13:28:51;;;;;;;;;;;17.10;92.70;;;;;;4978088;28;19910;-75
2022/03/16 13:31:23;;;;;;;;;;;16.80;91.00;;;;;;4993108;28;19956;-74
2022/03/16 13:33:50;;;;;;;;;;;15.80;91.70;;;;;;4992383;28;20012;-71
2022/03/16 13:36:15;;;;;;;;;;;15.10;93.30;;;;;;4994575;28;19996;-72
2022/03/16 13:38:41;;;;;;;;;;;14.70;94.00;;;;;;4977041;28;20005;-72
2022/03/16 13:41:13;;;;;;;;;;;14.50;94.90;;;;;;4986618;28;19913;-72
2022/03/16 13:43:39;;;;;;;;;;;14.50;95.20;;;;;;4996984;28;20366;-68
2022/03/16 13:46:09;;;;;;;;;;;14.50;95.40;;;;;;5010464;28;19909;-74
2022/03/16 13:48:38;;;;;;;;;;;14.70;95.50;;;;;;4994422;28;19935;-73
2022/03/16 13:51:06;;;;;;;;;;;14.70;95.40;;;;;;4996490;28;19941;-73
2022/03/16 13:53:43;;;;;;;;;;;14.60;95.40;;;;;;5011002;28;19963;-73
2022/03/16 13:56:11;;;;;;;;;;;14.70;95.70;;;;;;4996189;28;20023;-72
2022/03/16 13:58:38;;;;;;;;;;;14.50;95.90;;;;;;4990524;28;20417;-71
2022/03/16 14:01:04;;;;;;;;;;;14.40;96.40;;;;;;4993258;28;19917;-72
2022/03/16 14:03:30;;;;;;;;;;;14.30;96.60;;;;;;4991852;28;20024;-71
2022/03/16 14:05:56;;;;;;;;;;;14.20;96.70;;;;;;4985380;28;20433;-71
2022/03/16 14:08:22;;;;;;;;;;;14.40;96.90;;;;;;4995611;28;19914;-72
2022/03/16 14:10:49;;;;;;;;;;;14.40;96.90;;;;;;5012223;28;20000;-72
2022/03/16 14:13:15;;;;;;;;;;;13.90;97.80;;;;;;4989988;28;19913;-73
2022/03/16 14:15:43;;;;;;;;;;;13.90;98.00;;;;;;4995116;28;19917;-71
2022/03/16 14:18:13;;;;;;;;;;;14.10;98.10;;;;;;4996055;28;19945;-72
2022/03/16 14:20:48;;;;;;;;;;;14.10;98.20;;;;;;5013162;28;19920;-70
2022/03/16 14:23:13;;;;;;;;;;;14.10;98.70;;;;;;5012880;28;20270;-70
2022/03/16 14:25:40;;;;;;;;;;;14.10;98.40;;;;;;4986493;28;19925;-70
2022/03/16 14:28:07;;;;;;;;;;;14.20;98.20;;;;;;4996962;28;20370;-73
2022/03/16 14:30:35;;;;;;;;;;;14.00;98.60;;;;;;4994966;28;19914;-72
2022/03/16 14:33:02;;;;;;;;;;;13.90;98.70;;;;;;4996933;28;20063;-73
2022/03/16 14:35:29;;;;;;;;;;;13.80;98.70;;;;;;5013071;28;19914;-75
2022/03/16 14:37:55;;;;;;;;;;;13.90;99.00;;;;;;4996606;28;19910;-70
2022/03/16 14:40:24;;;;;;;;;;;13.90;98.70;;;;;;4995289;28;19996;-74
2022/03/16 14:42:50;;;;;;;;;;;13.80;98.90;;;;;;4993195;28;19913;-70
2022/03/16 14:45:16;;;;;;;;;;;13.90;99.10;;;;;;4989985;28;19921;-72
2022/03/16 14:47:42;;;;;;;;;;;13.70;99.00;;;;;;4995054;28;19918;-71
2022/03/16 14:50:08;;;;;;;;;;;13.80;99.20;;;;;;4994254;28;19999;-71
2022/03/16 14:52:34;;;;;;;;;;;13.80;98.80;;;;;;4996155;28;20334;-68